Time;durP1;ratioP1;P1;durP2;ratioP2;P2;SDS_P1;SDS_P2;PMS_P1;PMS_P2;Temp;Humidity;BMP_temperature;BMP_pressure;BME280_temperature;BME280_humidity;BME280_pressure;Samples;Min_cycle;Max_cycle;Signal;HPM_P1;HPM_P2
2024/03/27 00:00:15;;;;;;;2.07;1.60;;;;;;;19.69;49.14;94837.06;5046573;28;20200;-25
2024/03/27 00:02:41;;;;;;;1.70;1.60;;;;;;;19.67;49.32;94831.09;5049256;28;20204;-25
2024/03/27 00:05:07;;;;;;;1.90;1.50;;;;;;;19.62;49.10;94822.63;5051834;28;20645;-34
2024/03/27 00:07:32;;;;;;;2.10;1.90;;;;;;;19.66;49.31;94831.97;5059755;28;20604;-25
2024/03/27 00:09:58;;;;;;;1.60;1.50;;;;;;;19.66;49.44;94837.91;5065093;28;20231;-25
2024/03/27 00:12:24;;;;;;;1.87;1.67;;;;;;;19.67;49.29;94831.97;5056184;28;20212;-25
2024/03/27 00:14:49;;;;;;;1.60;1.50;;;;;;;19.67;49.27;94836.19;5047538;28;20204;-25
2024/03/27 00:17:15;;;;;;;1.60;1.50;;;;;;;19.68;49.26;94842.97;5045650;28;20706;-25
2024/03/27 00:19:41;;;;;;;2.97;1.63;;;;;;;19.66;49.34;94847.25;5056665;28;20262;-25
2024/03/27 00:22:06;;;;;;;1.70;1.60;;;;;;;19.66;49.30;94842.16;5044300;28;20203;-25
2024/03/27 00:24:32;;;;;;;2.33;1.60;;;;;;;19.67;49.12;94842.16;5059737;28;20282;-25
2024/03/27 00:26:57;;;;;;;2.60;1.90;;;;;;;19.68;49.12;94846.38;5040217;28;20216;-26
2024/03/27 00:29:23;;;;;;;2.53;1.67;;;;;;;19.65;49.28;94845.53;5017138;28;20207;-25
2024/03/27 00:31:49;;;;;;;1.57;1.40;;;;;;;19.66;49.26;94855.72;5037106;28;20200;-25
2024/03/27 00:34:15;;;;;;;1.63;1.53;;;;;;;19.66;49.22;94857.44;5054039;28;20234;-25
2024/03/27 00:36:41;;;;;;;1.80;1.57;;;;;;;19.67;49.26;94847.25;5056006;28;20200;-28
2024/03/27 00:39:06;;;;;;;1.70;1.60;;;;;;;19.63;49.24;94840.47;5058435;28;20196;-28
2024/03/27 00:41:32;;;;;;;1.60;1.50;;;;;;;19.64;49.33;94844.72;5044917;28;20204;-27
2024/03/27 00:43:58;;;;;;;1.60;1.50;;;;;;;19.65;49.23;94843.00;5045914;28;20231;-25
2024/03/27 00:46:24;;;;;;;1.60;1.50;;;;;;;19.65;49.26;94841.31;5046290;28;20393;-27
2024/03/27 00:48:49;;;;;;;1.50;1.40;;;;;;;19.66;49.31;94837.91;5050618;28;20288;-26
2024/03/27 00:51:15;;;;;;;1.70;1.60;;;;;;;19.66;49.31;94834.53;5052568;28;20658;-25
2024/03/27 00:53:41;;;;;;;1.60;1.50;;;;;;;19.67;49.29;94831.97;5059177;28;20274;-26
2024/03/27 00:56:07;;;;;;;1.80;1.70;;;;;;;19.65;49.44;94825.16;5054699;28;20196;-26
2024/03/27 00:58:32;;;;;;;2.00;1.63;;;;;;;19.67;49.04;94829.41;5055085;28;20667;-25
2024/03/27 01:00:58;;;;;;;2.03;1.40;;;;;;;19.66;49.33;94829.44;5057736;28;20200;-28
2024/03/27 01:03:24;;;;;;;2.13;1.63;;;;;;;19.68;49.34;94828.56;5056932;28;20220;-27
2024/03/27 01:05:49;;;;;;;1.70;1.60;;;;;;;19.60;49.30;94815.00;5032787;28;20201;-29
2024/03/27 01:08:15;;;;;;;1.73;1.63;;;;;;;19.66;49.31;94822.59;5013024;28;20655;-30
2024/03/27 01:10:40;;;;;;;1.77;1.67;;;;;;;19.65;49.31;94802.25;5054574;28;20277;-25
2024/03/27 01:13:09;;;;;;;1.80;1.53;;;;;;;19.65;49.22;94804.78;5054100;28;20549;-25
2024/03/27 01:15:35;;;;;;;1.73;1.63;;;;;;;19.65;49.25;94804.78;5057563;28;20195;-25
2024/03/27 01:18:05;;;;;;;1.50;1.40;;;;;;;19.63;49.27;94797.16;5044147;28;20232;-25
2024/03/27 01:20:32;;;;;;;1.50;1.40;;;;;;;19.66;49.26;94802.22;5055750;28;21731;-25
2024/03/27 01:22:57;;;;;;;1.73;1.50;;;;;;;19.57;49.31;94779.38;5057084;28;20249;-28
2024/03/27 01:25:23;;;;;;;1.73;1.63;;;;;;;19.66;49.17;94786.13;5046686;28;20228;-25
2024/03/27 01:27:49;;;;;;;1.80;1.70;;;;;;;19.60;49.12;94771.69;5053323;28;20265;-25
2024/03/27 01:30:14;;;;;;;1.97;1.80;;;;;;;19.63;49.38;94773.41;5055333;28;20204;-26
2024/03/27 01:32:40;;;;;;;2.10;1.70;;;;;;;19.65;49.12;94780.16;5065440;28;20214;-25
2024/03/27 01:35:06;;;;;;;1.77;1.67;;;;;;;19.64;49.38;94773.41;5060932;28;20588;-25
2024/03/27 01:37:31;;;;;;;1.70;1.60;;;;;;;19.65;49.39;94772.53;5051542;28;20717;-25
2024/03/27 01:39:57;;;;;;;1.70;1.60;;;;;;;19.65;49.32;94769.97;5057001;28;20207;-25
2024/03/27 01:42:22;;;;;;;1.67;1.57;;;;;;;19.66;49.33;94758.91;5054525;28;20307;-26
2024/03/27 01:44:48;;;;;;;1.50;1.40;;;;;;;19.67;49.23;94753.00;5042882;28;20700;-25
2024/03/27 01:47:14;;;;;;;1.73;1.60;;;;;;;19.68;49.83;94748.72;5049351;28;20236;-28
2024/03/27 01:49:39;;;;;;;1.50;1.40;;;;;;;19.64;49.16;94737.72;5043035;28;20284;-25
2024/03/27 01:52:05;;;;;;;1.90;1.70;;;;;;;19.65;49.15;94739.41;5051000;28;20208;-26
2024/03/27 01:54:31;;;;;;;1.70;1.53;;;;;;;19.68;49.30;94733.44;5050963;28;20663;-27
2024/03/27 01:56:57;;;;;;;1.70;1.60;;;;;;;19.68;49.16;94720.69;5037318;28;20227;-25
2024/03/27 01:59:23;;;;;;;1.60;1.50;;;;;;;19.66;49.27;94717.34;5052135;28;20208;-26
2024/03/27 02:01:48;;;;;;;1.60;1.50;;;;;;;19.67;49.05;94708.81;5049205;28;20603;-25
2024/03/27 02:04:14;;;;;;;1.70;1.60;;;;;;;19.63;49.02;94700.34;5048668;28;20782;-26
2024/03/27 02:06:40;;;;;;;1.70;1.60;;;;;;;19.67;49.24;94711.38;5036744;28;20191;-25
2024/03/27 02:09:06;;;;;;;1.40;1.30;;;;;;;19.64;49.32;94699.53;5050708;28;20196;-25
2024/03/27 02:11:32;;;;;;;2.73;1.77;;;;;;;19.63;49.33;94687.63;5049297;28;20257;-32
2024/03/27 02:13:57;;;;;;;1.60;1.50;;;;;;;19.66;49.33;94679.94;5029579;28;20196;-25
2024/03/27 02:16:23;;;;;;;2.80;1.60;;;;;;;19.63;48.91;94669.78;5049594;28;20585;-26
2024/03/27 02:18:49;;;;;;;1.70;1.60;;;;;;;19.67;49.26;94668.94;5052867;28;20303;-26
2024/03/27 02:21:14;;;;;;;1.67;1.57;;;;;;;19.67;49.31;94668.06;5052876;28;20204;-25
2024/03/27 02:24:03;;;;;;;1.83;1.73;;;;;;;19.64;49.11;94660.44;5047534;28;20655;-27
2024/03/27 02:26:31;;;;;;;1.83;1.60;;;;;;;19.64;49.23;94661.31;5038960;28;20196;-25
2024/03/27 02:28:57;;;;;;;1.70;1.60;;;;;;;19.65;49.05;94659.59;5057979;28;20247;-25
2024/03/27 02:31:22;;;;;;;1.63;1.43;;;;;;;19.64;49.18;94663.00;5047167;28;20200;-26
2024/03/27 02:33:48;;;;;;;2.07;1.77;;;;;;;19.63;49.29;94674.06;5059178;28;20200;-25
2024/03/27 02:36:14;;;;;;;1.70;1.60;;;;;;;19.62;49.17;94652.81;5057500;28;20210;-25
2024/03/27 02:38:40;;;;;;;1.50;1.40;;;;;;;19.64;49.28;94651.13;5052912;28;20342;-25
2024/03/27 02:41:05;;;;;;;2.07;1.70;;;;;;;19.64;49.37;94645.16;5053476;28;20262;-25
2024/03/27 02:43:31;;;;;;;1.73;1.63;;;;;;;19.65;49.45;94629.03;5049928;28;20220;-26
2024/03/27 02:45:56;;;;;;;1.67;1.57;;;;;;;19.61;49.23;94627.38;5060005;28;20195;-26
2024/03/27 02:48:22;;;;;;;1.70;1.60;;;;;;;19.63;49.25;94636.69;5052232;28;20825;-26
2024/03/27 02:50:48;;;;;;;1.60;1.50;;;;;;;19.61;49.20;94622.28;5057510;28;20282;-25
2024/03/27 02:53:13;;;;;;;1.80;1.70;;;;;;;19.65;49.34;94634.09;5055093;28;20295;-34
2024/03/27 02:55:39;;;;;;;1.60;1.50;;;;;;;19.64;49.37;94638.38;5061561;28;20300;-25
2024/03/27 02:58:04;;;;;;;2.10;1.50;;;;;;;19.65;49.31;94647.72;5053086;28;20220;-25
2024/03/27 03:00:30;;;;;;;1.57;1.47;;;;;;;19.56;49.30;94621.47;5047874;28;20663;-25
2024/03/27 03:02:55;;;;;;;1.93;1.50;;;;;;;19.66;49.25;94633.28;5025017;28;20204;-27
2024/03/27 03:05:21;;;;;;;1.60;1.50;;;;;;;19.65;49.25;94626.47;5065468;28;20322;-32
2024/03/27 03:07:47;;;;;;;1.57;1.47;;;;;;;19.62;49.36;94612.06;5052851;28;20219;-25
2024/03/27 03:10:12;;;;;;;1.83;1.70;;;;;;;19.65;49.38;94622.22;5063442;28;20207;-25
2024/03/27 03:12:38;;;;;;;1.50;1.40;;;;;;;19.64;49.36;94625.66;5041646;28;20651;-25
2024/03/27 03:15:04;;;;;;;1.60;1.50;;;;;;;19.62;49.37;94623.94;5053863;28;20214;-25
2024/03/27 03:17:30;;;;;;;1.90;1.80;;;;;;;19.61;49.34;94630.78;5053210;28;20232;-27
2024/03/27 03:19:56;;;;;;;1.43;1.33;;;;;;;19.63;49.41;94625.66;5056834;28;20200;-25
2024/03/27 03:22:21;;;;;;;2.80;1.83;;;;;;;19.63;49.56;94629.03;5051025;28;20280;-25
2024/03/27 03:24:47;;;;;;;1.80;1.70;;;;;;;19.64;49.41;94633.28;5058542;28;20224;-25
2024/03/27 03:27:12;;;;;;;1.70;1.60;;;;;;;19.63;49.36;94643.50;5064618;28;20231;-26
2024/03/27 03:29:38;;;;;;;1.70;1.60;;;;;;;19.66;49.38;94640.91;5056631;28;20645;-25
2024/03/27 03:32:04;;;;;;;1.60;1.50;;;;;;;19.64;49.45;94638.38;5057507;28;20279;-25
2024/03/27 03:34:29;;;;;;;1.63;1.40;;;;;;;19.62;49.37;94629.91;5064407;28;20208;-25
2024/03/27 03:36:55;;;;;;;1.73;1.63;;;;;;;19.64;49.29;94627.34;5049865;28;20289;-26
2024/03/27 03:39:21;;;;;;;1.70;1.60;;;;;;;19.62;49.27;94636.69;5058618;28;20269;-26
2024/03/27 03:41:47;;;;;;;1.77;1.63;;;;;;;19.61;49.47;94635.00;5058192;28;20257;-25
2024/03/27 03:44:12;;;;;;;1.83;1.67;;;;;;;19.63;49.44;94634.13;5051099;28;20262;-25
2024/03/27 03:46:38;;;;;;;1.50;1.40;;;;;;;19.61;49.34;94620.59;5056776;28;20669;-25
2024/03/27 03:49:04;;;;;;;1.50;1.40;;;;;;;19.64;49.26;94622.25;5067316;28;20264;-25
2024/03/27 03:51:29;;;;;;;1.80;1.70;;;;;;;19.59;49.36;94612.09;5065137;28;20260;-25
2024/03/27 03:53:55;;;;;;;2.00;1.70;;;;;;;19.65;49.51;94629.88;5048918;28;20207;-25
2024/03/27 03:56:21;;;;;;;1.77;1.67;;;;;;;19.60;49.38;94625.69;5055040;28;20213;-25
2024/03/27 03:58:47;;;;;;;1.80;1.70;;;;;;;19.64;49.21;94635.84;5049914;28;20714;-25
2024/03/27 04:01:12;;;;;;;1.83;1.50;;;;;;;19.65;49.21;94634.97;5050294;28;20377;-28
2024/03/27 04:03:38;;;;;;;1.67;1.57;;;;;;;19.58;49.30;94618.06;5059487;28;20275;-26
2024/03/27 04:06:04;;;;;;;1.87;1.77;;;;;;;19.63;49.32;94626.47;5056737;28;20729;-25
2024/03/27 04:08:29;;;;;;;3.13;1.60;;;;;;;19.63;48.96;94623.94;5057296;28;20229;-25
2024/03/27 04:10:55;;;;;;;1.90;1.53;;;;;;;19.64;49.33;94619.69;5059134;28;20207;-25
2024/03/27 04:13:20;;;;;;;1.70;1.60;;;;;;;19.61;49.36;94612.94;5061955;28;20643;-25
2024/03/27 04:15:46;;;;;;;1.80;1.70;;;;;;;19.65;49.35;94613.72;5052620;28;20280;-25
2024/03/27 04:18:12;;;;;;;1.83;1.60;;;;;;;19.64;49.34;94605.28;5058863;28;20660;-25
2024/03/27 04:20:41;;;;;;;1.60;1.50;;;;;;;19.65;49.48;94595.91;5055001;28;20203;-25
2024/03/27 04:23:06;;;;;;;1.53;1.43;;;;;;;19.59;49.46;94578.13;5043345;28;20205;-25
2024/03/27 04:25:32;;;;;;;2.13;1.60;;;;;;;19.64;49.27;94586.59;5043062;28;20539;-25
2024/03/27 04:27:57;;;;;;;1.67;1.57;;;;;;;19.64;49.46;94574.69;5051080;28;20702;-25
2024/03/27 04:30:23;;;;;;;1.70;1.60;;;;;;;19.64;49.47;94573.84;5037883;28;20209;-26
2024/03/27 04:32:49;;;;;;;1.77;1.50;;;;;;;19.66;49.34;94577.22;5038712;28;20212;-25
2024/03/27 04:35:15;;;;;;;1.60;1.50;;;;;;;19.63;49.43;94569.63;5050447;28;20201;-25
2024/03/27 04:37:41;;;;;;;2.10;1.50;;;;;;;19.65;49.32;94571.28;5057206;28;20220;-25
2024/03/27 04:40:11;;;;;;;1.70;1.60;;;;;;;19.65;49.32;94562.78;5038533;28;20210;-25
2024/03/27 04:42:39;;;;;;;1.30;1.20;;;;;;;19.65;49.24;94567.88;5053623;28;20212;-25
2024/03/27 04:45:07;;;;;;;1.50;1.40;;;;;;;19.64;49.36;94556.88;5056916;28;20216;-25
2024/03/27 04:47:33;;;;;;;1.30;1.30;;;;;;;19.64;49.15;94549.22;5044053;28;20239;-27
2024/03/27 04:49:59;;;;;;;1.70;1.60;;;;;;;19.60;49.31;94534.00;5057338;28;20208;-25
2024/03/27 04:52:24;;;;;;;1.63;1.40;;;;;;;19.62;49.47;94534.81;5054582;28;20208;-25
2024/03/27 04:54:50;;;;;;;1.83;1.70;;;;;;;19.61;49.46;94539.06;5051847;28;20310;-27
2024/03/27 04:57:18;;;;;;;1.60;1.50;;;;;;;19.61;49.36;94533.13;5052345;28;20240;-25
2024/03/27 04:59:45;;;;;;;1.50;1.40;;;;;;;19.62;49.43;94543.28;5053236;28;20208;-25
2024/03/27 05:02:10;;;;;;;1.57;1.43;;;;;;;19.61;49.53;94523.78;5053130;28;20211;-26
2024/03/27 05:04:36;;;;;;;1.47;1.37;;;;;;;19.63;49.24;94526.31;5051721;28;20221;-25
2024/03/27 05:07:02;;;;;;;1.60;1.50;;;;;;;19.65;49.43;94527.97;5056752;28;20227;-25
2024/03/27 05:09:27;;;;;;;1.67;1.57;;;;;;;19.62;49.45;94522.06;5041859;28;20247;-25
2024/03/27 05:11:53;;;;;;;1.50;1.40;;;;;;;19.64;49.53;94528.84;5049887;28;20204;-25
2024/03/27 05:14:19;;;;;;;1.60;1.50;;;;;;;19.65;49.48;94527.13;5063034;28;20200;-26
2024/03/27 05:16:45;;;;;;;1.57;1.47;;;;;;;19.59;49.41;94514.47;5062932;28;20740;-25
2024/03/27 05:19:12;;;;;;;1.57;1.47;;;;;;;19.65;49.32;94522.88;5057922;28;20204;-30
2024/03/27 05:21:38;;;;;;;1.60;1.50;;;;;;;19.64;49.32;94507.63;5051026;28;20200;-25
2024/03/27 05:24:04;;;;;;;1.77;1.60;;;;;;;19.63;49.30;94503.41;5085681;28;20226;-25
2024/03/27 05:26:29;;;;;;;1.60;1.50;;;;;;;19.64;49.29;94507.63;5052843;28;20204;-26
2024/03/27 05:28:55;;;;;;;1.90;1.80;;;;;;;19.64;49.53;94505.06;5048540;28;20230;-25
2024/03/27 05:31:21;;;;;;;1.60;1.50;;;;;;;19.62;49.38;94496.59;5053856;28;20681;-25
2024/03/27 05:33:47;;;;;;;1.77;1.67;;;;;;;19.64;49.29;94488.09;5045987;28;20219;-25
2024/03/27 05:36:13;;;;;;;3.13;1.70;;;;;;;19.64;49.32;94466.88;5052926;28;20204;-25
2024/03/27 05:38:39;;;;;;;1.70;1.60;;;;;;;19.65;49.33;94466.00;5047400;28;20770;-25
2024/03/27 05:41:04;;;;;;;1.60;1.50;;;;;;;19.63;49.43;94470.28;5049826;28;20204;-25
2024/03/27 05:43:30;;;;;;;1.70;1.60;;;;;;;19.63;49.32;94473.66;5056466;28;20685;-25
2024/03/27 05:45:56;;;;;;;1.53;1.43;;;;;;;19.63;49.23;94473.66;5050697;28;20224;-25
2024/03/27 05:48:21;;;;;;;1.60;1.50;;;;;;;19.63;49.54;94483.03;5053135;28;20246;-25
2024/03/27 05:50:47;;;;;;;1.77;1.67;;;;;;;19.64;49.71;94480.47;5054473;28;20204;-25
2024/03/27 05:53:13;;;;;;;1.73;1.50;;;;;;;19.63;49.36;94481.28;5048422;28;20246;-25
2024/03/27 05:55:39;;;;;;;1.67;1.57;;;;;;;19.66;49.41;94480.44;5058186;28;20596;-26
2024/03/27 05:58:04;;;;;;;1.50;1.40;;;;;;;19.68;49.51;94486.34;5045427;28;20217;-25
2024/03/27 06:00:30;;;;;;;1.60;1.50;;;;;;;19.66;49.52;94491.44;5044529;28;20628;-25
2024/03/27 06:02:55;;;;;;;1.83;1.60;;;;;;;19.63;49.20;94480.47;5054122;28;20249;-25
2024/03/27 06:05:21;;;;;;;1.50;1.40;;;;;;;19.65;49.26;94477.03;5032111;28;20269;-25
2024/03/27 06:07:47;;;;;;;1.70;1.60;;;;;;;19.67;49.44;94472.78;5037144;28;20235;-25
2024/03/27 06:10:12;;;;;;;1.60;1.40;;;;;;;19.66;49.35;94477.88;5053359;28;20697;-25
2024/03/27 06:12:38;;;;;;;1.60;1.50;;;;;;;19.63;49.33;94473.66;5049290;28;20639;-25
2024/03/27 06:15:04;;;;;;;1.83;1.60;;;;;;;19.66;49.25;94478.72;5056799;28;20235;-26
2024/03/27 06:17:30;;;;;;;1.40;1.30;;;;;;;19.66;49.26;94476.16;5058664;28;20718;-25
2024/03/27 06:19:56;;;;;;;1.80;1.70;;;;;;;19.66;49.31;94478.72;5034183;28;20204;-26
2024/03/27 06:22:21;;;;;;;1.80;1.67;;;;;;;19.67;49.16;94484.66;5040883;28;20204;-25
2024/03/27 06:24:47;;;;;;;2.30;1.73;;;;;;;19.62;49.15;94478.75;5047898;28;20216;-25
2024/03/27 06:27:12;;;;;;;2.77;1.80;;;;;;;19.64;48.96;94495.72;5050408;28;20266;-25
2024/03/27 06:29:38;;;;;;;2.33;1.80;;;;;;;19.67;49.29;94502.50;5060724;28;20196;-25
2024/03/27 06:32:04;;;;;;;1.80;1.70;;;;;;;19.63;49.03;94495.75;5053201;28;20204;-25
2024/03/27 06:34:29;;;;;;;1.63;1.53;;;;;;;19.63;48.62;94483.03;5032175;28;20596;-25
2024/03/27 06:36:55;;;;;;;2.20;1.70;;;;;;;19.66;47.63;94486.34;5055737;28;20239;-26
2024/03/27 06:39:21;;;;;;;1.90;1.80;;;;;;;19.67;47.50;94487.22;5044479;28;20216;-26
2024/03/27 06:41:47;;;;;;;2.03;1.77;;;;;;;19.68;48.10;94478.69;5046557;28;20681;-25
2024/03/27 06:44:15;;;;;;;4.90;2.30;;;;;;;19.67;47.38;94490.59;5052278;28;20216;-25
2024/03/27 06:46:40;;;;;;;3.97;2.23;;;;;;;19.67;47.67;94490.59;5049269;28;20208;-25
2024/03/27 06:49:18;;;;;;;2.73;2.00;;;;;;;19.67;47.59;94477.00;5049442;28;20208;-25
2024/03/27 06:51:50;;;;;;;3.60;2.20;;;;;;;19.66;47.92;94480.44;5057544;28;20200;-25
2024/03/27 06:54:16;;;;;;;3.30;1.90;;;;;;;19.66;47.96;94486.34;5046823;28;20204;-25
2024/03/27 06:56:42;;;;;;;2.73;2.10;;;;;;;19.68;47.85;94486.34;5048497;28;20213;-25
2024/03/27 06:59:08;;;;;;;4.60;1.90;;;;;;;19.69;47.97;94488.03;5056431;28;20204;-25
2024/03/27 07:01:33;;;;;;;2.20;2.00;;;;;;;19.68;47.91;94484.63;5056267;28;20212;-29
2024/03/27 07:03:59;;;;;;;4.07;2.20;;;;;;;19.70;47.93;94487.16;5048923;28;20241;-26
2024/03/27 07:06:25;;;;;;;3.20;2.00;;;;;;;19.70;48.00;94482.06;5055844;28;20200;-25
2024/03/27 07:08:50;;;;;;;2.87;2.23;;;;;;;19.70;47.98;94482.94;5045856;28;20255;-26
2024/03/27 07:11:16;;;;;;;4.97;2.27;;;;;;;19.69;47.89;94476.13;5048600;28;20689;-25
2024/03/27 07:13:41;;;;;;;2.83;1.80;;;;;;;19.65;48.01;94463.44;5048381;28;20731;-25
2024/03/27 07:16:07;;;;;;;3.90;2.23;;;;;;;19.70;48.05;94470.19;5046113;28;20212;-25
2024/03/27 07:18:34;;;;;;;6.13;2.20;;;;;;;19.70;48.06;94461.69;5045322;28;20311;-25
2024/03/27 07:20:59;;;;;;;5.07;2.40;;;;;;;19.70;48.01;94451.50;5052700;28;20208;-25
2024/03/27 07:23:27;;;;;;;2.90;1.90;;;;;;;19.72;48.21;94439.59;5045305;28;20277;-26
2024/03/27 07:25:53;;;;;;;2.80;2.00;;;;;;;19.71;48.21;94440.44;5047609;28;20224;-26
2024/03/27 07:28:19;;;;;;;3.10;2.23;;;;;;;19.71;47.37;94435.34;5052806;28;20269;-25
2024/03/27 07:30:48;;;;;;;5.37;2.13;;;;;;;19.71;46.28;94438.75;5044143;28;20583;-27
2024/03/27 07:33:13;;;;;;;2.90;2.00;;;;;;;19.72;47.15;94434.50;5044142;28;20204;-25
2024/03/27 07:35:39;;;;;;;4.37;2.47;;;;;;;19.70;47.43;94431.97;5044803;28;20192;-25
2024/03/27 07:38:05;;;;;;;3.00;2.10;;;;;;;19.71;47.44;94426.00;5050533;28;20228;-25
2024/03/27 07:40:30;;;;;;;3.23;2.30;;;;;;;19.66;47.68;94422.66;5050785;28;20299;-25
2024/03/27 07:42:56;;;;;;;3.17;2.00;;;;;;;19.72;47.77;94429.41;5051010;28;20465;-28
2024/03/27 07:45:22;;;;;;;2.87;2.10;;;;;;;19.68;47.84;94420.97;5045371;28;20224;-25
2024/03/27 07:47:49;;;;;;;3.03;2.00;;;;;;;19.67;47.77;94426.94;5055908;28;20243;-27
2024/03/27 07:50:15;;;;;;;3.00;2.27;;;;;;;19.71;47.85;94432.81;5053192;28;20200;-25
2024/03/27 07:52:42;;;;;;;2.77;1.93;;;;;;;19.70;47.84;94420.94;5041501;28;20207;-25
2024/03/27 07:55:08;;;;;;;2.20;1.80;;;;;;;19.68;47.92;94417.56;5054300;28;20567;-25
2024/03/27 07:57:34;;;;;;;2.00;1.87;;;;;;;19.69;48.00;94414.16;5052164;28;20219;-25
2024/03/27 08:00:00;;;;;;;2.00;1.80;;;;;;;19.67;47.99;94411.66;5042325;28;20273;-28
2024/03/27 08:02:25;;;;;;;2.93;2.00;;;;;;;19.64;47.90;94396.41;5051461;28;20638;-25
2024/03/27 08:04:51;;;;;;;7.33;2.40;;;;;;;19.71;47.64;94394.59;5042483;28;20375;-31
2024/03/27 08:07:17;;;;;;;2.50;1.87;;;;;;;19.71;47.89;94395.44;5049441;28;20227;-25
2024/03/27 08:09:50;;;;;;;3.80;1.90;;;;;;;19.53;48.02;94360.03;5049030;28;20266;-26
2024/03/27 08:12:17;;;;;;;3.83;2.10;;;;;;;19.67;47.94;94372.59;5051244;28;20496;-25
2024/03/27 08:14:43;;;;;;;3.03;2.10;;;;;;;19.72;47.94;94384.38;5048379;28;20204;-25
2024/03/27 08:17:09;;;;;;;3.37;2.30;;;;;;;19.71;48.05;94369.13;5050182;28;20270;-25
2024/03/27 08:19:39;;;;;;;5.00;2.23;;;;;;;19.72;48.17;94371.66;5054481;28;20207;-25
2024/03/27 08:22:08;;;;;;;4.77;2.17;;;;;;;19.65;48.21;94359.00;5046472;28;20197;-25
2024/03/27 08:24:34;;;;;;;4.70;1.90;;;;;;;19.63;47.93;94359.03;5049285;28;20282;-25
2024/03/27 08:27:03;;;;;;;5.57;2.40;;;;;;;19.68;48.21;94379.34;5045614;28;20634;-25
2024/03/27 08:29:29;;;;;;;3.13;1.80;;;;;;;19.70;48.34;94382.72;5054749;28;20227;-25
2024/03/27 08:31:58;;;;;;;4.37;2.10;;;;;;;19.68;48.30;94374.25;5056408;28;20587;-27
2024/03/27 08:34:24;;;;;;;6.13;2.07;;;;;;;19.67;48.29;94383.63;5051840;28;20671;-25
2024/03/27 08:36:49;;;;;;;6.07;2.20;;;;;;;19.68;48.35;94382.75;5045599;28;20235;-26
2024/03/27 08:39:15;;;;;;;2.27;1.97;;;;;;;19.65;48.43;94382.78;5047430;28;20583;-25
2024/03/27 08:41:41;;;;;;;4.50;1.93;;;;;;;19.68;48.36;94387.84;5045592;28;20208;-25
2024/03/27 08:44:07;;;;;;;3.90;2.03;;;;;;;19.66;48.38;94374.28;5052475;28;20212;-25
2024/03/27 08:46:33;;;;;;;5.83;2.23;;;;;;;19.72;48.35;94370.81;5032663;28;20212;-26
2024/03/27 08:48:59;;;;;;;5.27;2.00;;;;;;;19.71;48.49;94377.63;5048167;28;20243;-25
2024/03/27 08:51:25;;;;;;;4.97;2.03;;;;;;;19.73;48.40;94368.25;5055787;28;20195;-26
2024/03/27 08:53:51;;;;;;;2.97;1.90;;;;;;;19.68;48.58;94353.88;5043070;28;20236;-25
2024/03/27 08:56:17;;;;;;;3.03;1.97;;;;;;;19.72;48.66;94373.38;5042863;28;20197;-26
2024/03/27 08:58:43;;;;;;;2.27;1.90;;;;;;;19.72;48.66;94364.00;5045816;28;20281;-25
2024/03/27 09:01:15;;;;;;;4.07;2.00;;;;;;;19.71;48.61;94357.22;5055254;28;20622;-26
2024/03/27 09:03:41;;;;;;;7.97;2.53;;;;;;;19.71;48.60;94369.97;5053099;28;20193;-25
2024/03/27 09:06:07;;;;;;;3.20;1.77;;;;;;;19.72;48.63;94374.19;5046385;28;20230;-26
2024/03/27 09:08:33;;;;;;;4.80;2.07;;;;;;;19.69;48.55;94375.97;5042481;28;20234;-30
2024/03/27 09:10:59;;;;;;;2.00;1.80;;;;;;;19.72;48.57;94383.56;5052541;28;20243;-26
2024/03/27 09:13:25;;;;;;;2.50;1.77;;;;;;;19.68;48.52;94389.53;5056928;28;20211;-25
2024/03/27 09:15:51;;;;;;;2.73;1.83;;;;;;;19.72;48.66;94398.84;5053801;28;20208;-26
2024/03/27 09:18:17;;;;;;;2.43;2.10;;;;;;;19.69;48.66;94388.69;5049335;28;20224;-29
2024/03/27 09:20:43;;;;;;;3.80;2.00;;;;;;;19.70;48.63;94382.72;5058303;28;20204;-27
2024/03/27 09:23:09;;;;;;;3.30;1.90;;;;;;;19.69;48.42;94381.88;5045862;28;20589;-25
2024/03/27 09:25:34;;;;;;;2.67;1.80;;;;;;;19.72;48.48;94381.84;5043449;28;20224;-25
2024/03/27 09:28:00;;;;;;;3.80;2.23;;;;;;;19.71;48.64;94385.25;5054799;28;20299;-25
2024/03/27 09:30:25;;;;;;;3.20;1.90;;;;;;;19.70;48.52;94396.31;5054117;28;20211;-28
2024/03/27 09:32:51;;;;;;;2.73;1.90;;;;;;;19.70;48.53;94391.22;5055069;28;20213;-25
2024/03/27 09:35:17;;;;;;;6.40;2.27;;;;;;;19.70;48.74;94390.38;5037145;28;20201;-25
2024/03/27 09:37:42;;;;;;;3.77;1.80;;;;;;;19.71;48.55;94386.94;5044830;28;20224;-25
2024/03/27 09:40:08;;;;;;;3.00;2.00;;;;;;;19.72;48.76;94398.84;5043753;28;20204;-26
2024/03/27 09:42:35;;;;;;;3.90;1.70;;;;;;;19.71;48.61;94390.34;5058541;28;20274;-26
2024/03/27 09:45:01;;;;;;;3.00;2.03;;;;;;;19.72;48.69;94388.66;5032777;28;20282;-26
2024/03/27 09:47:27;;;;;;;1.87;1.67;;;;;;;19.70;48.40;94385.28;5029206;28;20228;-25
2024/03/27 09:49:53;;;;;;;3.13;1.90;;;;;;;19.68;48.76;94380.19;5013690;28;20222;-25
2024/03/27 09:52:19;;;;;;;1.73;1.60;;;;;;;19.66;48.62;94364.09;5023494;28;20208;-25
2024/03/27 09:54:44;;;;;;;1.70;1.60;;;;;;;19.72;48.64;94378.47;5020095;28;20208;-25
2024/03/27 09:57:10;;;;;;;3.03;1.90;;;;;;;19.70;48.59;94368.31;5032714;28;20212;-25
2024/03/27 09:59:36;;;;;;;2.00;1.77;;;;;;;19.72;48.73;94368.28;5052960;28;20417;-25
2024/03/27 10:02:04;;;;;;;1.60;1.50;;;;;;;19.72;48.64;94378.47;5058582;28;20200;-30
2024/03/27 10:04:29;;;;;;;3.30;1.97;;;;;;;19.73;48.58;94380.13;5043473;28;20652;-25
2024/03/27 10:06:56;;;;;;;4.97;2.17;;;;;;;19.74;48.76;94369.06;5047911;28;20201;-26
2024/03/27 10:09:21;;;;;;;2.47;2.00;;;;;;;19.71;48.63;94364.88;5047852;28;20257;-26
2024/03/27 10:11:47;;;;;;;3.93;1.93;;;;;;;19.71;48.18;94359.78;5060014;28;20670;-28
2024/03/27 10:14:13;;;;;;;3.00;1.90;;;;;;;19.68;48.75;94357.28;5044639;28;20338;-25
2024/03/27 10:16:39;;;;;;;1.90;1.70;;;;;;;19.67;48.78;94345.41;5048632;28;20672;-25
2024/03/27 10:19:05;;;;;;;2.53;1.77;;;;;;;19.70;48.66;94357.25;5050304;28;20196;-25
2024/03/27 10:21:34;;;;;;;2.30;1.83;;;;;;;19.70;48.81;94347.06;5044209;28;20214;-25
2024/03/27 10:24:00;;;;;;;4.70;1.90;;;;;;;19.71;48.82;94351.28;5049594;28;20248;-25
2024/03/27 10:26:29;;;;;;;3.67;2.00;;;;;;;19.65;48.84;94338.63;5055980;28;20203;-30
2024/03/27 10:28:56;;;;;;;2.97;1.60;;;;;;;19.70;48.79;94345.38;5035736;28;20231;-25
2024/03/27 10:31:22;;;;;;;1.80;1.70;;;;;;;19.68;48.86;94344.53;5051310;28;20576;-25
2024/03/27 10:33:47;;;;;;;3.20;1.90;;;;;;;19.71;48.70;94343.66;5045744;28;20292;-25
2024/03/27 10:36:13;;;;;;;3.27;1.83;;;;;;;19.70;48.76;94347.06;5037978;28;20210;-25
2024/03/27 10:38:39;;;;;;;2.37;2.00;;;;;;;19.69;48.63;94347.94;5022797;28;20792;-27
2024/03/27 10:41:05;;;;;;;2.00;1.80;;;;;;;19.71;48.90;94336.84;5029302;28;20580;-25
2024/03/27 10:43:42;;;;;;;2.10;1.87;;;;;;;19.62;48.71;94324.25;5038634;28;20199;-25
2024/03/27 10:46:07;;;;;;;1.60;1.50;;;;;;;19.71;48.71;94339.41;5023527;28;20220;-26
2024/03/27 10:48:33;;;;;;;2.43;1.60;;;;;;;19.72;48.68;94328.34;5031361;28;20281;-25
2024/03/27 10:50:59;;;;;;;2.90;2.10;;;;;;;19.73;48.56;94324.09;5048590;28;20208;-25
2024/03/27 10:53:25;;;;;;;2.37;2.17;;;;;;;19.68;48.79;94325.84;5046560;28;20219;-28
2024/03/27 10:55:51;;;;;;;4.07;1.87;;;;;;;19.71;48.50;94326.66;5019561;28;20681;-26
2024/03/27 10:58:16;;;;;;;2.63;1.87;;;;;;;19.71;48.64;94315.63;5032847;28;20281;-25
2024/03/27 11:00:42;;;;;;;3.23;1.80;;;;;;;19.74;48.56;94326.63;5016991;28;20204;-25
2024/03/27 11:03:08;;;;;;;3.40;1.80;;;;;;;19.75;48.79;94319.84;5050979;28;20582;-26
2024/03/27 11:05:34;;;;;;;3.20;2.10;;;;;;;19.74;48.65;94311.34;5047857;28;20224;-26
2024/03/27 11:07:59;;;;;;;8.80;1.90;;;;;;;19.77;49.04;94315.53;5049582;28;20661;-25
2024/03/27 11:10:25;;;;;;;2.07;1.87;;;;;;;19.79;48.79;94316.38;5032276;28;20208;-26
2024/03/27 11:12:51;;;;;;;3.40;2.00;;;;;;;19.81;48.88;94318.00;5049678;28;20208;-25
2024/03/27 11:15:17;;;;;;;2.57;2.00;;;;;;;19.80;49.27;94308.69;5049206;28;20631;-25
2024/03/27 11:17:49;;;;;;;1.90;1.70;;;;;;;19.83;49.07;94318.00;5047144;28;20651;-34
2024/03/27 11:20:15;;;;;;;2.83;1.87;;;;;;;19.80;49.11;94315.50;5050684;28;20200;-25
2024/03/27 11:22:47;;;;;;;4.33;1.90;;;;;;;19.77;49.11;94306.19;5061999;28;20200;-25
2024/03/27 11:25:14;;;;;;;4.47;1.87;;;;;;;19.82;49.38;94312.06;5052937;28;20705;-25
2024/03/27 11:27:39;;;;;;;1.83;1.63;;;;;;;19.73;49.55;94299.47;5062093;28;20232;-25